sensor_id;sensor_type;location;lat;lon;timestamp;pressure;altitude;pressure_sealevel;temperature;humidity
7586;BME280;12459;42.646;23.292;2023-02-19T00:12:37;93939.66;;;9.49;100.00
7586;BME280;12459;42.646;23.292;2023-02-19T00:27:39;93894.56;;;9.48;100.00
7586;BME280;12459;42.646;23.292;2023-02-19T00:42:40;93896.88;;;9.49;100.00
7586;BME280;12459;42.646;23.292;2023-02-19T00:57:42;93872.41;;;9.47;100.00
7586;BME280;12459;42.646;23.292;2023-02-19T01:12:43;93847.94;;;9.52;100.00
7586;BME280;12459;42.646;23.292;2023-02-19T01:27:45;93881.59;;;9.46;100.00
7586;BME280;12459;42.646;23.292;2023-02-19T01:42:46;93906.78;;;9.49;100.00
7586;BME280;12459;42.646;23.292;2023-02-19T01:57:49;93920.56;;;9.47;100.00
7586;BME280;12459;42.646;23.292;2023-02-19T02:12:55;93890.75;;;9.45;100.00
7586;BME280;12459;42.646;23.292;2023-02-19T02:42:58;93924.38;;;9.46;100.00
7586;BME280;12459;42.646;23.292;2023-02-19T02:58:00;93912.16;;;9.49;100.00
7586;BME280;12459;42.646;23.292;2023-02-19T03:13:02;93902.22;;;9.49;100.00
7586;BME280;12459;42.646;23.292;2023-02-19T03:28:25;93932.00;;;9.51;100.00
7586;BME280;12459;42.646;23.292;2023-02-19T03:43:49;93950.75;;;9.51;100.00
7586;BME280;12459;42.646;23.292;2023-02-19T03:59:00;93951.50;;;9.48;100.00
7586;BME280;12459;42.646;23.292;2023-02-19T05:02:16;93992.41;;;9.38;100.00
7586;BME280;12459;42.646;23.292;2023-02-19T05:17:18;93999.66;;;9.34;100.00
7586;BME280;12459;42.646;23.292;2023-02-19T05:32:20;94012.66;;;9.39;100.00
7586;BME280;12459;42.646;23.292;2023-02-19T05:47:21;94027.19;;;9.45;100.00
7586;BME280;12459;42.646;23.292;2023-02-19T06:02:23;94034.03;;;9.60;100.00
7586;BME280;12459;42.646;23.292;2023-02-19T06:17:24;94058.88;;;9.65;100.00
7586;BME280;12459;42.646;23.292;2023-02-19T06:32:26;94062.69;;;9.71;100.00
7586;BME280;12459;42.646;23.292;2023-02-19T06:47:31;94056.94;;;9.76;100.00
7586;BME280;12459;42.646;23.292;2023-02-19T07:02:33;94072.97;;;9.83;100.00
7586;BME280;12459;42.646;23.292;2023-02-19T07:17:34;94084.81;;;9.89;100.00
7586;BME280;12459;42.646;23.292;2023-02-19T07:32:39;94065.31;;;9.92;100.00
7586;BME280;12459;42.646;23.292;2023-02-19T07:47:41;94042.72;;;10.00;100.00
7586;BME280;12459;42.646;23.292;2023-02-19T08:02:42;94042.72;;;10.04;100.00
7586;BME280;12459;42.646;23.292;2023-02-19T08:18:02;94030.44;;;10.13;100.00
7586;BME280;12459;42.646;23.292;2023-02-19T08:33:04;94039.22;;;10.17;100.00
7586;BME280;12459;42.646;23.292;2023-02-19T08:48:07;94033.13;;;10.20;100.00
7586;BME280;12459;42.646;23.292;2023-02-19T09:03:09;94021.25;;;10.21;100.00
7586;BME280;12459;42.646;23.292;2023-02-19T09:18:10;93990.63;;;10.26;100.00
7586;BME280;12459;42.646;23.292;2023-02-19T09:33:12;93992.16;;;10.23;100.00
7586;BME280;12459;42.646;23.292;2023-02-19T09:48:14;93979.84;;;10.37;100.00
7586;BME280;12459;42.646;23.292;2023-02-19T10:03:37;93946.94;;;10.40;100.00
7586;BME280;12459;42.646;23.292;2023-02-19T10:18:40;93916.66;;;10.50;100.00
7586;BME280;12459;42.646;23.292;2023-02-19T10:49:00;93861.06;;;10.61;100.00
7586;BME280;12459;42.646;23.292;2023-02-19T11:04:15;93827.72;;;10.66;100.00
7586;BME280;12459;42.646;23.292;2023-02-19T11:34:38;93785.53;;;10.73;100.00
7586;BME280;12459;42.646;23.292;2023-02-19T11:49:43;93764.41;;;10.79;100.00
7586;BME280;12459;42.646;23.292;2023-02-19T13:05:19;93642.41;;;10.98;100.00
7586;BME280;12459;42.646;23.292;2023-02-19T13:20:24;93628.53;;;11.03;100.00
7586;BME280;12459;42.646;23.292;2023-02-19T14:22:49;93567.94;;;11.09;100.00
7586;BME280;12459;42.646;23.292;2023-02-19T14:37:58;93551.06;;;11.08;100.00
7586;BME280;12459;42.646;23.292;2023-02-19T14:53:02;93541.22;;;11.02;100.00
7586;BME280;12459;42.646;23.292;2023-02-19T15:08:10;93505.91;;;11.07;100.00
7586;BME280;12459;42.646;23.292;2023-02-19T15:23:14;93513.94;;;11.07;100.00
7586;BME280;12459;42.646;23.292;2023-02-19T15:38:19;93515.16;;;11.02;100.00
7586;BME280;12459;42.646;23.292;2023-02-19T15:53:22;93542.72;;;11.03;100.00
7586;BME280;12459;42.646;23.292;2023-02-19T16:08:32;93578.41;;;11.00;100.00
7586;BME280;12459;42.646;23.292;2023-02-19T16:23:34;93581.91;;;10.97;100.00
7586;BME280;12459;42.646;23.292;2023-02-19T16:38:36;93584.94;;;10.99;100.00
7586;BME280;12459;42.646;23.292;2023-02-19T16:53:38;93594.13;;;10.98;100.00
7586;BME280;12459;42.646;23.292;2023-02-19T17:08:40;93615.59;;;10.98;100.00
7586;BME280;12459;42.646;23.292;2023-02-19T17:23:42;93629.41;;;10.96;100.00
7586;BME280;12459;42.646;23.292;2023-02-19T17:38:44;93656.16;;;11.00;100.00
7586;BME280;12459;42.646;23.292;2023-02-19T17:53:45;93661.16;;;10.98;100.00
7586;BME280;12459;42.646;23.292;2023-02-19T18:08:48;93673.06;;;10.97;100.00
7586;BME280;12459;42.646;23.292;2023-02-19T18:23:50;93698.34;;;10.96;100.00
7586;BME280;12459;42.646;23.292;2023-02-19T18:38:51;93721.34;;;10.93;100.00
7586;BME280;12459;42.646;23.292;2023-02-19T18:53:53;93731.31;;;10.93;100.00
7586;BME280;12459;42.646;23.292;2023-02-19T19:08:55;93748.97;;;10.90;100.00
7586;BME280;12459;42.646;23.292;2023-02-19T19:23:58;93767.38;;;10.88;100.00
7586;BME280;12459;42.646;23.292;2023-02-19T19:39:00;93782.69;;;10.87;100.00
7586;BME280;12459;42.646;23.292;2023-02-19T19:54:02;93789.63;;;10.85;100.00
7586;BME280;12459;42.646;23.292;2023-02-19T20:09:04;93812.25;;;10.80;100.00
7586;BME280;12459;42.646;23.292;2023-02-19T20:24:06;93824.91;;;10.80;100.00
7586;BME280;12459;42.646;23.292;2023-02-19T20:39:07;93846.34;;;10.80;100.00
7586;BME280;12459;42.646;23.292;2023-02-19T20:54:09;93860.91;;;10.79;100.00
7586;BME280;12459;42.646;23.292;2023-02-19T21:09:11;93879.28;;;10.80;100.00
7586;BME280;12459;42.646;23.292;2023-02-19T21:24:13;93888.09;;;10.77;100.00
7586;BME280;12459;42.646;23.292;2023-02-19T21:39:16;93891.59;;;10.74;100.00
7586;BME280;12459;42.646;23.292;2023-02-19T21:54:21;93889.28;;;10.73;100.00
7586;BME280;12459;42.646;23.292;2023-02-19T22:09:25;93909.59;;;10.70;100.00
7586;BME280;12459;42.646;23.292;2023-02-19T22:24:26;93923.00;;;10.70;100.00
7586;BME280;12459;42.646;23.292;2023-02-19T22:39:28;93961.31;;;10.67;100.00
7586;BME280;12459;42.646;23.292;2023-02-19T22:54:29;93974.34;;;10.65;100.00
7586;BME280;12459;42.646;23.292;2023-02-19T23:09:31;93949.84;;;10.67;100.00
7586;BME280;12459;42.646;23.292;2023-02-19T23:24:32;93936.84;;;10.65;100.00
7586;BME280;12459;42.646;23.292;2023-02-19T23:39:34;93935.69;;;10.63;100.00
7586;BME280;12459;42.646;23.292;2023-02-19T23:54:36;93964.81;;;10.61;100.00
